»·PEaware :: UAL765 KLAS-KSFO

UAL765 :: KLAS-KSFO

FLIGHT INFORMATION

Flight Status: Arrived
Operator:
United Airlines
More flights by this operator :: More flights under this callsign
Pilot: Max W. (2591)
Aircraft: BOEING 737-800
(B738)
More flights by this aircraft type
Origin: KLAS McCarran Intl
United States
Destination: KSFO San Francisco Intl
United States
More flights between these airports :: More routes between these airports
Route: SHEAD1 KENNO RUSME DYAMD3
File this flight plan on PilotEdge
Remarks:
Altitude:
(Current/Filed)
32,000ft
Speed:
(Current/Filed)
450kts
Departed: 10-Jun-18 06:39 PM
Arrived: 10-Jun-18 07:51 PM
Distance/Time
Traveled:
359nm/1:12
Distance/Time
To Go:
Arrived

Flight Plot

Page will automatically refresh every two minutes.

Flight plan parsing failed; only flown route is shown


Map Options




Map Legend


Flown Route
Filed Route
Departure Airport
Arrival Airport
Navaid (VOR, NDB)
Fix

Horizontal Profiles

Position Reports

Time Latitude Longitude Heading Altitude Ground
Speed
10-Jun-18 18:35 36.080432 -115.140422 87 2122ft 0kts
10-Jun-18 18:36 36.080417 -115.140961 87 2122ft 1kts
10-Jun-18 18:37 36.080416 -115.140969 87 2122ft 0kts
10-Jun-18 18:38 36.080410 -115.140883 98 2122ft 1kts
10-Jun-18 18:39 36.078278 -115.135487 92 2122ft 44kts
10-Jun-18 18:40 36.077579 -115.122095 100 2122ft 19kts
10-Jun-18 18:41 36.076345 -115.121985 268 2122ft 4kts
10-Jun-18 18:42 36.076319 -115.144431 268 2125ft 171kts
10-Jun-18 18:43 36.076258 -115.208656 267 4253ft 211kts
10-Jun-18 18:44 36.042961 -115.272068 194 5313ft 274kts
10-Jun-18 18:45 35.970103 -115.305328 213 7097ft 286kts
10-Jun-18 18:46 35.911002 -115.374213 225 9896ft 297kts
10-Jun-18 18:47 35.885763 -115.472315 270 11564ft 340kts
10-Jun-18 18:48 35.889422 -115.595721 272 13397ft 370kts
10-Jun-18 18:49 35.891949 -115.724133 271 15772ft 378kts
10-Jun-18 18:50 35.894031 -115.855011 271 17878ft 386kts
10-Jun-18 18:51 35.915159 -115.983287 305 19739ft 398kts
10-Jun-18 18:52 35.993855 -116.082463 313 21403ft 409kts
10-Jun-18 18:53 36.077247 -116.179869 314 22878ft 417kts
10-Jun-18 18:54 36.162482 -116.278713 314 24235ft 423kts
10-Jun-18 18:55 36.249556 -116.379209 314 25460ft 430kts
10-Jun-18 18:56 36.337109 -116.481087 313 26632ft 435kts
10-Jun-18 18:57 36.425554 -116.584518 313 27730ft 439kts
10-Jun-18 18:58 36.514239 -116.688359 313 29206ft 434kts
10-Jun-18 18:59 36.607849 -116.781223 324 30731ft 432kts
10-Jun-18 19:00 36.709906 -116.858821 324 31922ft 430kts
10-Jun-18 19:01 36.811933 -116.936660 324 31945ft 426kts
10-Jun-18 19:02 36.913076 -117.013814 324 31961ft 426kts
10-Jun-18 19:03 37.014358 -117.091341 323 31978ft 425kts
10-Jun-18 19:04 37.115036 -117.168531 324 31981ft 424kts
10-Jun-18 19:05 37.215369 -117.245977 324 31993ft 423kts
10-Jun-18 19:06 37.313826 -117.326789 317 32004ft 418kts
10-Jun-18 19:07 37.402295 -117.421261 315 32025ft 417kts
10-Jun-18 19:08 37.482604 -117.523598 291 32051ft 408kts
10-Jun-18 19:09 37.503464 -117.663607 277 32045ft 407kts
10-Jun-18 19:10 37.516238 -117.804876 276 32033ft 406kts
10-Jun-18 19:11 37.527969 -117.946281 276 32021ft 406kts
10-Jun-18 19:12 37.539786 -118.087962 276 32009ft 406kts
10-Jun-18 19:13 37.551040 -118.229426 276 32001ft 406kts
10-Jun-18 19:14 37.561993 -118.371107 276 32010ft 407kts
10-Jun-18 19:15 37.571004 -118.489925 276 32037ft 407kts
10-Jun-18 19:16 37.581594 -118.631891 275 32105ft 407kts
10-Jun-18 19:17 37.592025 -118.774212 275 32173ft 408kts
10-Jun-18 19:18 37.602338 -118.917300 275 32195ft 409kts
10-Jun-18 19:19 37.614119 -119.083862 275 32175ft 409kts
10-Jun-18 19:20 37.622394 -119.202886 275 32176ft 409kts
10-Jun-18 19:21 37.632155 -119.345583 275 32163ft 408kts
10-Jun-18 19:22 37.641757 -119.488510 275 32157ft 407kts
10-Jun-18 19:23 37.651132 -119.630770 275 32139ft 407kts
10-Jun-18 19:24 37.660360 -119.773258 275 32099ft 406kts
10-Jun-18 19:25 37.669373 -119.915102 275 32052ft 405kts
10-Jun-18 19:26 37.678469 -120.057263 275 31748ft 401kts
10-Jun-18 19:27 37.686805 -120.193747 275 29942ft 384kts
10-Jun-18 19:28 37.694590 -120.326135 275 28106ft 373kts
10-Jun-18 19:29 37.693374 -120.456273 264 26275ft 377kts
10-Jun-18 19:30 37.678016 -120.587225 263 24343ft 373kts
10-Jun-18 19:31 37.662784 -120.715417 263 22473ft 365kts
10-Jun-18 19:32 37.647803 -120.841037 263 20859ft 358kts
10-Jun-18 19:33 37.632879 -120.963653 262 19344ft 351kts
10-Jun-18 19:34 37.616979 -121.083889 262 17864ft 344kts
10-Jun-18 19:35 37.600956 -121.202469 262 16391ft 340kts
10-Jun-18 19:36 37.586464 -121.318757 263 15135ft 320kts
10-Jun-18 19:37 37.574144 -121.423528 264 13752ft 297kts
10-Jun-18 19:38 37.562197 -121.526568 264 12461ft 297kts
10-Jun-18 19:39 37.549905 -121.628411 259 11325ft 292kts
10-Jun-18 19:40 37.526689 -121.726220 255 10203ft 280kts
10-Jun-18 19:41 37.505054 -121.816192 255 8951ft 265kts
10-Jun-18 19:42 37.484165 -121.901255 253 7646ft 252kts
10-Jun-18 19:43 37.462755 -121.982945 259 6230ft 238kts
10-Jun-18 19:44 37.483155 -122.052994 299 5233ft 202kts
10-Jun-18 19:45 37.508801 -122.113506 298 4227ft 189kts
10-Jun-18 19:46 37.533421 -122.171968 297 3263ft 187kts
10-Jun-18 19:47 37.557504 -122.229237 296 2318ft 183kts
10-Jun-18 19:48 37.580674 -122.284374 296 1378ft 158kts
10-Jun-18 19:49 37.599122 -122.328171 292 682ft 136kts
10-Jun-18 19:50 37.616950 -122.370778 292 22ft 124kts
10-Jun-18 19:51 37.619539 -122.379504 230 21ft 0kts
10-Jun-18 19:52 37.619538 -122.379506 230 20ft 0kts
10-Jun-18 19:53 37.619151 -122.380623 280 21ft 8kts
10-Jun-18 19:54 37.621110 -122.385478 297 21ft 5kts
10-Jun-18 19:55 37.621121 -122.386830 228 21ft 0kts
10-Jun-18 19:56 37.621120 -122.386832 228 21ft 0kts

Navigation Log

Ident Type
Flight plan parsing failed, navigation log unavailable